sensor_id;sensor_type;location;lat;lon;timestamp;P1;durP1;ratioP1;P2;durP2;ratioP2
56102;SDS011;41970;48.774;9.280;2023-05-07T00:00:02;3.83;;;3.20;;
56102;SDS011;41970;48.774;9.280;2023-05-07T00:02:32;4.03;;;2.80;;
56102;SDS011;41970;48.774;9.280;2023-05-07T00:04:57;3.70;;;3.03;;
56102;SDS011;41970;48.774;9.280;2023-05-07T00:07:23;3.23;;;2.63;;
56102;SDS011;41970;48.774;9.280;2023-05-07T00:09:49;2.73;;;2.40;;
56102;SDS011;41970;48.774;9.280;2023-05-07T00:12:15;2.87;;;2.33;;
56102;SDS011;41970;48.774;9.280;2023-05-07T00:14:41;2.33;;;1.87;;
56102;SDS011;41970;48.774;9.280;2023-05-07T00:17:07;5.10;;;2.83;;
56102;SDS011;41970;48.774;9.280;2023-05-07T00:19:32;2.47;;;2.27;;
56102;SDS011;41970;48.774;9.280;2023-05-07T00:21:58;3.40;;;2.57;;
56102;SDS011;41970;48.774;9.280;2023-05-07T00:24:24;2.90;;;2.70;;
56102;SDS011;41970;48.774;9.280;2023-05-07T00:26:50;1.97;;;1.80;;
56102;SDS011;41970;48.774;9.280;2023-05-07T00:29:16;3.70;;;2.70;;
56102;SDS011;41970;48.774;9.280;2023-05-07T00:31:41;2.60;;;2.40;;
56102;SDS011;41970;48.774;9.280;2023-05-07T00:34:07;2.97;;;2.67;;
56102;SDS011;41970;48.774;9.280;2023-05-07T00:36:33;2.40;;;2.20;;
56102;SDS011;41970;48.774;9.280;2023-05-07T00:38:59;2.00;;;1.90;;
56102;SDS011;41970;48.774;9.280;2023-05-07T00:41:27;2.73;;;2.53;;
56102;SDS011;41970;48.774;9.280;2023-05-07T00:43:53;2.70;;;2.30;;
56102;SDS011;41970;48.774;9.280;2023-05-07T00:46:20;2.90;;;2.30;;
56102;SDS011;41970;48.774;9.280;2023-05-07T00:48:46;2.70;;;2.50;;
56102;SDS011;41970;48.774;9.280;2023-05-07T00:51:12;2.70;;;2.00;;
56102;SDS011;41970;48.774;9.280;2023-05-07T00:53:38;3.70;;;1.97;;
56102;SDS011;41970;48.774;9.280;2023-05-07T00:56:04;2.97;;;2.17;;
56102;SDS011;41970;48.774;9.280;2023-05-07T00:58:31;2.67;;;2.17;;
56102;SDS011;41970;48.774;9.280;2023-05-07T01:00:59;2.07;;;1.80;;
56102;SDS011;41970;48.774;9.280;2023-05-07T01:03:25;2.60;;;2.40;;
56102;SDS011;41970;48.774;9.280;2023-05-07T01:05:50;2.80;;;2.30;;
56102;SDS011;41970;48.774;9.280;2023-05-07T01:08:19;2.73;;;2.53;;
56102;SDS011;41970;48.774;9.280;2023-05-07T01:10:46;5.30;;;2.00;;
56102;SDS011;41970;48.774;9.280;2023-05-07T01:13:12;2.80;;;2.60;;
56102;SDS011;41970;48.774;9.280;2023-05-07T01:15:38;2.43;;;2.00;;
56102;SDS011;41970;48.774;9.280;2023-05-07T01:18:06;2.40;;;2.23;;
56102;SDS011;41970;48.774;9.280;2023-05-07T01:20:32;4.03;;;2.40;;
56102;SDS011;41970;48.774;9.280;2023-05-07T01:22:58;4.93;;;3.07;;
56102;SDS011;41970;48.774;9.280;2023-05-07T01:25:25;5.40;;;2.73;;
56102;SDS011;41970;48.774;9.280;2023-05-07T01:27:51;3.10;;;2.80;;
56102;SDS011;41970;48.774;9.280;2023-05-07T01:30:17;5.33;;;2.40;;
56102;SDS011;41970;48.774;9.280;2023-05-07T01:35:40;3.50;;;2.33;;
56102;SDS011;41970;48.774;9.280;2023-05-07T01:38:09;3.50;;;3.13;;
56102;SDS011;41970;48.774;9.280;2023-05-07T01:40:35;5.30;;;3.40;;
56102;SDS011;41970;48.774;9.280;2023-05-07T01:43:02;3.67;;;2.90;;
56102;SDS011;41970;48.774;9.280;2023-05-07T01:45:28;3.07;;;2.77;;
56102;SDS011;41970;48.774;9.280;2023-05-07T01:47:55;2.90;;;2.70;;
56102;SDS011;41970;48.774;9.280;2023-05-07T01:50:22;2.73;;;2.30;;
56102;SDS011;41970;48.774;9.280;2023-05-07T01:52:49;3.03;;;2.57;;
56102;SDS011;41970;48.774;9.280;2023-05-07T01:55:16;3.97;;;2.20;;
56102;SDS011;41970;48.774;9.280;2023-05-07T01:57:41;2.97;;;2.67;;
56102;SDS011;41970;48.774;9.280;2023-05-07T02:00:08;2.30;;;2.10;;
56102;SDS011;41970;48.774;9.280;2023-05-07T02:02:34;3.50;;;2.30;;
56102;SDS011;41970;48.774;9.280;2023-05-07T02:05:00;2.50;;;2.30;;
56102;SDS011;41970;48.774;9.280;2023-05-07T02:07:26;3.00;;;2.73;;
56102;SDS011;41970;48.774;9.280;2023-05-07T02:09:53;2.90;;;2.67;;
56102;SDS011;41970;48.774;9.280;2023-05-07T02:12:20;5.23;;;3.20;;
56102;SDS011;41970;48.774;9.280;2023-05-07T02:14:46;4.57;;;3.60;;
56102;SDS011;41970;48.774;9.280;2023-05-07T02:17:12;2.70;;;2.50;;
56102;SDS011;41970;48.774;9.280;2023-05-07T02:19:38;3.83;;;3.10;;
56102;SDS011;41970;48.774;9.280;2023-05-07T02:22:03;3.40;;;3.10;;
56102;SDS011;41970;48.774;9.280;2023-05-07T02:24:29;3.30;;;3.00;;
56102;SDS011;41970;48.774;9.280;2023-05-07T02:26:55;3.23;;;2.73;;
56102;SDS011;41970;48.774;9.280;2023-05-07T02:29:21;3.50;;;2.83;;
56102;SDS011;41970;48.774;9.280;2023-05-07T02:31:46;3.20;;;2.60;;
56102;SDS011;41970;48.774;9.280;2023-05-07T02:34:16;3.40;;;2.40;;
56102;SDS011;41970;48.774;9.280;2023-05-07T02:36:42;2.70;;;2.50;;
56102;SDS011;41970;48.774;9.280;2023-05-07T02:39:08;2.40;;;1.97;;
56102;SDS011;41970;48.774;9.280;2023-05-07T02:41:33;5.20;;;3.07;;
56102;SDS011;41970;48.774;9.280;2023-05-07T02:43:59;4.77;;;2.40;;
56102;SDS011;41970;48.774;9.280;2023-05-07T02:46:25;3.13;;;2.90;;
56102;SDS011;41970;48.774;9.280;2023-05-07T02:48:51;3.53;;;2.77;;
56102;SDS011;41970;48.774;9.280;2023-05-07T02:51:20;3.93;;;3.20;;
56102;SDS011;41970;48.774;9.280;2023-05-07T02:53:46;3.10;;;2.80;;
56102;SDS011;41970;48.774;9.280;2023-05-07T02:56:12;3.30;;;3.00;;
56102;SDS011;41970;48.774;9.280;2023-05-07T02:58:38;2.73;;;2.53;;
56102;SDS011;41970;48.774;9.280;2023-05-07T03:01:07;3.30;;;3.03;;
56102;SDS011;41970;48.774;9.280;2023-05-07T03:03:33;3.97;;;3.10;;
56102;SDS011;41970;48.774;9.280;2023-05-07T03:06:00;3.83;;;3.47;;
56102;SDS011;41970;48.774;9.280;2023-05-07T03:08:26;4.10;;;3.60;;
56102;SDS011;41970;48.774;9.280;2023-05-07T03:10:52;4.17;;;3.67;;
56102;SDS011;41970;48.774;9.280;2023-05-07T03:13:18;4.60;;;4.10;;
56102;SDS011;41970;48.774;9.280;2023-05-07T03:15:43;4.03;;;3.63;;
56102;SDS011;41970;48.774;9.280;2023-05-07T03:18:09;7.23;;;3.90;;
56102;SDS011;41970;48.774;9.280;2023-05-07T03:20:35;4.30;;;3.00;;
56102;SDS011;41970;48.774;9.280;2023-05-07T03:23:01;5.13;;;3.70;;
56102;SDS011;41970;48.774;9.280;2023-05-07T03:25:27;3.73;;;3.37;;
56102;SDS011;41970;48.774;9.280;2023-05-07T03:27:55;9.17;;;3.83;;
56102;SDS011;41970;48.774;9.280;2023-05-07T03:30:21;3.67;;;3.37;;
56102;SDS011;41970;48.774;9.280;2023-05-07T03:32:47;3.97;;;3.20;;
56102;SDS011;41970;48.774;9.280;2023-05-07T03:35:13;4.87;;;4.00;;
56102;SDS011;41970;48.774;9.280;2023-05-07T03:37:39;4.30;;;3.50;;
56102;SDS011;41970;48.774;9.280;2023-05-07T03:40:05;4.07;;;3.67;;
56102;SDS011;41970;48.774;9.280;2023-05-07T03:42:31;3.30;;;3.00;;
56102;SDS011;41970;48.774;9.280;2023-05-07T03:44:57;4.37;;;3.30;;
56102;SDS011;41970;48.774;9.280;2023-05-07T03:47:23;3.43;;;3.13;;
56102;SDS011;41970;48.774;9.280;2023-05-07T03:49:49;3.83;;;3.43;;
56102;SDS011;41970;48.774;9.280;2023-05-07T03:52:15;3.30;;;3.00;;
56102;SDS011;41970;48.774;9.280;2023-05-07T03:54:41;3.40;;;3.10;;
56102;SDS011;41970;48.774;9.280;2023-05-07T03:57:06;3.53;;;3.10;;
56102;SDS011;41970;48.774;9.280;2023-05-07T03:59:32;4.73;;;3.10;;
56102;SDS011;41970;48.774;9.280;2023-05-07T04:01:58;4.70;;;2.87;;
56102;SDS011;41970;48.774;9.280;2023-05-07T04:04:24;3.03;;;2.73;;
56102;SDS011;41970;48.774;9.280;2023-05-07T04:06:49;4.07;;;3.10;;
56102;SDS011;41970;48.774;9.280;2023-05-07T04:09:16;3.27;;;2.90;;
56102;SDS011;41970;48.774;9.280;2023-05-07T04:11:42;2.70;;;2.47;;
56102;SDS011;41970;48.774;9.280;2023-05-07T04:14:08;3.40;;;2.67;;
56102;SDS011;41970;48.774;9.280;2023-05-07T04:16:34;3.00;;;2.70;;
56102;SDS011;41970;48.774;9.280;2023-05-07T04:19:00;3.20;;;2.90;;
56102;SDS011;41970;48.774;9.280;2023-05-07T04:21:26;6.93;;;2.70;;
56102;SDS011;41970;48.774;9.280;2023-05-07T04:23:52;5.00;;;2.90;;
56102;SDS011;41970;48.774;9.280;2023-05-07T04:26:17;3.50;;;3.30;;
56102;SDS011;41970;48.774;9.280;2023-05-07T04:28:46;5.60;;;3.03;;
56102;SDS011;41970;48.774;9.280;2023-05-07T04:31:12;5.40;;;3.33;;
56102;SDS011;41970;48.774;9.280;2023-05-07T04:33:38;4.00;;;3.60;;
56102;SDS011;41970;48.774;9.280;2023-05-07T04:36:03;3.37;;;3.07;;
56102;SDS011;41970;48.774;9.280;2023-05-07T04:38:30;3.70;;;3.40;;
56102;SDS011;41970;48.774;9.280;2023-05-07T04:40:56;5.33;;;2.87;;
56102;SDS011;41970;48.774;9.280;2023-05-07T04:43:22;13.83;;;7.33;;
56102;SDS011;41970;48.774;9.280;2023-05-07T04:45:51;4.00;;;3.37;;
56102;SDS011;41970;48.774;9.280;2023-05-07T04:48:17;3.10;;;2.80;;
56102;SDS011;41970;48.774;9.280;2023-05-07T04:50:48;6.07;;;3.40;;
56102;SDS011;41970;48.774;9.280;2023-05-07T04:53:15;5.67;;;2.83;;
56102;SDS011;41970;48.774;9.280;2023-05-07T04:55:41;5.40;;;2.60;;
56102;SDS011;41970;48.774;9.280;2023-05-07T04:58:07;5.03;;;2.97;;
56102;SDS011;41970;48.774;9.280;2023-05-07T05:00:33;4.97;;;2.93;;
56102;SDS011;41970;48.774;9.280;2023-05-07T05:02:58;3.90;;;3.13;;
56102;SDS011;41970;48.774;9.280;2023-05-07T05:05:24;3.80;;;3.33;;
56102;SDS011;41970;48.774;9.280;2023-05-07T05:07:50;3.07;;;2.80;;
56102;SDS011;41970;48.774;9.280;2023-05-07T05:10:16;5.10;;;3.60;;
56102;SDS011;41970;48.774;9.280;2023-05-07T05:12:43;3.90;;;3.40;;
56102;SDS011;41970;48.774;9.280;2023-05-07T05:15:10;3.00;;;2.80;;
56102;SDS011;41970;48.774;9.280;2023-05-07T05:17:37;3.80;;;2.80;;
56102;SDS011;41970;48.774;9.280;2023-05-07T05:20:03;5.53;;;4.00;;
56102;SDS011;41970;48.774;9.280;2023-05-07T05:22:30;4.40;;;2.80;;
56102;SDS011;41970;48.774;9.280;2023-05-07T05:24:56;3.80;;;3.50;;
56102;SDS011;41970;48.774;9.280;2023-05-07T05:27:22;3.80;;;3.33;;
56102;SDS011;41970;48.774;9.280;2023-05-07T05:29:48;3.80;;;3.50;;
56102;SDS011;41970;48.774;9.280;2023-05-07T05:32:14;4.27;;;3.80;;
56102;SDS011;41970;48.774;9.280;2023-05-07T05:34:40;3.70;;;3.40;;
56102;SDS011;41970;48.774;9.280;2023-05-07T05:37:06;4.60;;;4.20;;
56102;SDS011;41970;48.774;9.280;2023-05-07T05:39:32;3.97;;;3.17;;
56102;SDS011;41970;48.774;9.280;2023-05-07T05:41:57;4.33;;;3.30;;
56102;SDS011;41970;48.774;9.280;2023-05-07T05:44:23;4.30;;;4.00;;
56102;SDS011;41970;48.774;9.280;2023-05-07T05:46:50;4.63;;;4.23;;
56102;SDS011;41970;48.774;9.280;2023-05-07T05:49:16;4.73;;;4.33;;
56102;SDS011;41970;48.774;9.280;2023-05-07T05:51:41;5.57;;;4.63;;
56102;SDS011;41970;48.774;9.280;2023-05-07T05:54:07;6.87;;;5.10;;
56102;SDS011;41970;48.774;9.280;2023-05-07T05:56:33;5.40;;;4.90;;
56102;SDS011;41970;48.774;9.280;2023-05-07T05:58:59;4.90;;;4.50;;
56102;SDS011;41970;48.774;9.280;2023-05-07T06:01:25;5.57;;;5.07;;
56102;SDS011;41970;48.774;9.280;2023-05-07T06:03:50;9.20;;;7.03;;
56102;SDS011;41970;48.774;9.280;2023-05-07T06:06:16;6.83;;;6.00;;
56102;SDS011;41970;48.774;9.280;2023-05-07T06:08:42;7.40;;;6.60;;
56102;SDS011;41970;48.774;9.280;2023-05-07T06:11:08;7.97;;;6.50;;
56102;SDS011;41970;48.774;9.280;2023-05-07T06:13:33;7.57;;;6.63;;
56102;SDS011;41970;48.774;9.280;2023-05-07T06:15:59;6.13;;;5.53;;
56102;SDS011;41970;48.774;9.280;2023-05-07T06:18:25;6.77;;;5.70;;
56102;SDS011;41970;48.774;9.280;2023-05-07T06:20:51;8.17;;;5.87;;
56102;SDS011;41970;48.774;9.280;2023-05-07T06:23:17;7.27;;;6.30;;
56102;SDS011;41970;48.774;9.280;2023-05-07T06:25:50;9.33;;;6.87;;
56102;SDS011;41970;48.774;9.280;2023-05-07T06:28:16;6.20;;;5.60;;
56102;SDS011;41970;48.774;9.280;2023-05-07T06:30:43;6.10;;;5.50;;
56102;SDS011;41970;48.774;9.280;2023-05-07T06:33:09;7.20;;;5.97;;
56102;SDS011;41970;48.774;9.280;2023-05-07T06:35:35;11.10;;;6.30;;
56102;SDS011;41970;48.774;9.280;2023-05-07T06:38:01;7.27;;;6.20;;
56102;SDS011;41970;48.774;9.280;2023-05-07T06:40:26;8.87;;;7.67;;
56102;SDS011;41970;48.774;9.280;2023-05-07T06:42:52;14.80;;;10.77;;
56102;SDS011;41970;48.774;9.280;2023-05-07T06:45:19;6.17;;;5.57;;
56102;SDS011;41970;48.774;9.280;2023-05-07T06:47:45;8.70;;;7.13;;
56102;SDS011;41970;48.774;9.280;2023-05-07T06:50:11;6.93;;;6.23;;
56102;SDS011;41970;48.774;9.280;2023-05-07T06:52:37;4.67;;;4.23;;
56102;SDS011;41970;48.774;9.280;2023-05-07T06:55:03;6.90;;;6.20;;
56102;SDS011;41970;48.774;9.280;2023-05-07T06:57:29;5.47;;;4.97;;
56102;SDS011;41970;48.774;9.280;2023-05-07T06:59:54;7.40;;;5.40;;
56102;SDS011;41970;48.774;9.280;2023-05-07T07:02:20;5.23;;;4.73;;
56102;SDS011;41970;48.774;9.280;2023-05-07T07:04:46;5.53;;;5.03;;
56102;SDS011;41970;48.774;9.280;2023-05-07T07:07:12;5.83;;;5.23;;
56102;SDS011;41970;48.774;9.280;2023-05-07T07:09:38;5.00;;;4.60;;
56102;SDS011;41970;48.774;9.280;2023-05-07T07:12:03;4.73;;;4.23;;
56102;SDS011;41970;48.774;9.280;2023-05-07T07:14:29;5.53;;;5.03;;
56102;SDS011;41970;48.774;9.280;2023-05-07T07:16:55;4.97;;;4.50;;
56102;SDS011;41970;48.774;9.280;2023-05-07T07:19:21;4.57;;;4.17;;
56102;SDS011;41970;48.774;9.280;2023-05-07T07:21:47;4.50;;;4.10;;
56102;SDS011;41970;48.774;9.280;2023-05-07T07:24:14;4.93;;;4.53;;
56102;SDS011;41970;48.774;9.280;2023-05-07T07:26:44;4.57;;;4.17;;
56102;SDS011;41970;48.774;9.280;2023-05-07T07:29:10;4.47;;;4.07;;
56102;SDS011;41970;48.774;9.280;2023-05-07T07:31:36;4.63;;;3.63;;
56102;SDS011;41970;48.774;9.280;2023-05-07T07:34:01;4.03;;;3.70;;
56102;SDS011;41970;48.774;9.280;2023-05-07T07:36:27;3.60;;;3.07;;
56102;SDS011;41970;48.774;9.280;2023-05-07T07:38:53;5.37;;;4.30;;
56102;SDS011;41970;48.774;9.280;2023-05-07T07:41:19;4.10;;;3.70;;
56102;SDS011;41970;48.774;9.280;2023-05-07T07:43:46;4.00;;;3.33;;
56102;SDS011;41970;48.774;9.280;2023-05-07T07:46:12;3.63;;;3.27;;
56102;SDS011;41970;48.774;9.280;2023-05-07T07:48:38;3.80;;;3.50;;
56102;SDS011;41970;48.774;9.280;2023-05-07T07:51:03;3.57;;;3.27;;
56102;SDS011;41970;48.774;9.280;2023-05-07T07:53:30;3.77;;;3.07;;
56102;SDS011;41970;48.774;9.280;2023-05-07T07:55:55;3.73;;;3.43;;
56102;SDS011;41970;48.774;9.280;2023-05-07T07:58:21;3.23;;;2.93;;
56102;SDS011;41970;48.774;9.280;2023-05-07T08:00:47;4.20;;;3.20;;
56102;SDS011;41970;48.774;9.280;2023-05-07T08:03:13;7.07;;;2.73;;
56102;SDS011;41970;48.774;9.280;2023-05-07T08:05:41;3.67;;;3.37;;
56102;SDS011;41970;48.774;9.280;2023-05-07T08:08:07;3.53;;;3.20;;
56102;SDS011;41970;48.774;9.280;2023-05-07T08:10:33;5.67;;;2.83;;
56102;SDS011;41970;48.774;9.280;2023-05-07T08:13:00;3.47;;;3.17;;
56102;SDS011;41970;48.774;9.280;2023-05-07T08:15:26;3.27;;;3.07;;
56102;SDS011;41970;48.774;9.280;2023-05-07T08:17:52;3.40;;;3.10;;
56102;SDS011;41970;48.774;9.280;2023-05-07T08:20:18;3.30;;;3.00;;
56102;SDS011;41970;48.774;9.280;2023-05-07T08:22:44;4.03;;;2.80;;
56102;SDS011;41970;48.774;9.280;2023-05-07T08:25:09;3.37;;;3.13;;
56102;SDS011;41970;48.774;9.280;2023-05-07T08:27:35;3.10;;;2.90;;
56102;SDS011;41970;48.774;9.280;2023-05-07T08:30:01;4.50;;;3.27;;
56102;SDS011;41970;48.774;9.280;2023-05-07T08:32:27;3.70;;;3.40;;
56102;SDS011;41970;48.774;9.280;2023-05-07T08:34:53;3.40;;;3.10;;
56102;SDS011;41970;48.774;9.280;2023-05-07T08:37:18;4.17;;;3.87;;
56102;SDS011;41970;48.774;9.280;2023-05-07T08:39:45;2.80;;;2.60;;
56102;SDS011;41970;48.774;9.280;2023-05-07T08:42:11;3.27;;;3.03;;
56102;SDS011;41970;48.774;9.280;2023-05-07T08:44:40;3.47;;;3.17;;
56102;SDS011;41970;48.774;9.280;2023-05-07T08:47:10;4.40;;;3.80;;
56102;SDS011;41970;48.774;9.280;2023-05-07T08:49:36;4.80;;;4.40;;
56102;SDS011;41970;48.774;9.280;2023-05-07T08:52:02;3.20;;;2.90;;
56102;SDS011;41970;48.774;9.280;2023-05-07T08:54:28;3.20;;;3.00;;
56102;SDS011;41970;48.774;9.280;2023-05-07T08:56:55;3.57;;;3.27;;
56102;SDS011;41970;48.774;9.280;2023-05-07T08:59:21;3.63;;;3.30;;
56102;SDS011;41970;48.774;9.280;2023-05-07T09:01:47;3.27;;;2.97;;
56102;SDS011;41970;48.774;9.280;2023-05-07T09:04:13;4.10;;;3.80;;
56102;SDS011;41970;48.774;9.280;2023-05-07T09:06:39;5.27;;;3.50;;
56102;SDS011;41970;48.774;9.280;2023-05-07T09:09:07;3.00;;;2.70;;
56102;SDS011;41970;48.774;9.280;2023-05-07T09:11:33;3.30;;;3.00;;
56102;SDS011;41970;48.774;9.280;2023-05-07T09:13:58;3.00;;;2.70;;
56102;SDS011;41970;48.774;9.280;2023-05-07T09:16:26;4.47;;;3.30;;
56102;SDS011;41970;48.774;9.280;2023-05-07T09:18:54;3.30;;;3.00;;
56102;SDS011;41970;48.774;9.280;2023-05-07T09:21:20;3.57;;;3.07;;
56102;SDS011;41970;48.774;9.280;2023-05-07T09:23:50;3.10;;;2.80;;
56102;SDS011;41970;48.774;9.280;2023-05-07T09:26:16;3.50;;;3.20;;
56102;SDS011;41970;48.774;9.280;2023-05-07T09:28:44;3.20;;;2.90;;
56102;SDS011;41970;48.774;9.280;2023-05-07T09:31:11;2.93;;;2.73;;
56102;SDS011;41970;48.774;9.280;2023-05-07T09:33:37;3.60;;;3.30;;
56102;SDS011;41970;48.774;9.280;2023-05-07T09:36:05;2.53;;;2.33;;
56102;SDS011;41970;48.774;9.280;2023-05-07T09:38:32;3.03;;;2.70;;
56102;SDS011;41970;48.774;9.280;2023-05-07T09:41:06;2.50;;;2.30;;
56102;SDS011;41970;48.774;9.280;2023-05-07T09:43:37;2.60;;;2.40;;
56102;SDS011;41970;48.774;9.280;2023-05-07T09:46:09;2.80;;;2.60;;
56102;SDS011;41970;48.774;9.280;2023-05-07T09:48:38;2.60;;;2.40;;
56102;SDS011;41970;48.774;9.280;2023-05-07T09:51:08;3.27;;;2.53;;
56102;SDS011;41970;48.774;9.280;2023-05-07T09:53:46;3.00;;;2.70;;
56102;SDS011;41970;48.774;9.280;2023-05-07T09:56:13;2.93;;;2.70;;
56102;SDS011;41970;48.774;9.280;2023-05-07T09:58:40;5.77;;;2.90;;
56102;SDS011;41970;48.774;9.280;2023-05-07T10:01:07;3.47;;;3.20;;
56102;SDS011;41970;48.774;9.280;2023-05-07T10:03:35;3.10;;;2.90;;
56102;SDS011;41970;48.774;9.280;2023-05-07T10:06:02;3.73;;;2.87;;
56102;SDS011;41970;48.774;9.280;2023-05-07T10:08:30;3.20;;;2.90;;
56102;SDS011;41970;48.774;9.280;2023-05-07T10:10:56;8.20;;;3.77;;
56102;SDS011;41970;48.774;9.280;2023-05-07T10:13:22;4.93;;;3.70;;
56102;SDS011;41970;48.774;9.280;2023-05-07T10:15:47;2.93;;;2.73;;
56102;SDS011;41970;48.774;9.280;2023-05-07T10:18:14;2.97;;;2.77;;
56102;SDS011;41970;48.774;9.280;2023-05-07T10:20:41;3.40;;;3.10;;
56102;SDS011;41970;48.774;9.280;2023-05-07T10:23:12;4.80;;;3.27;;
56102;SDS011;41970;48.774;9.280;2023-05-07T10:25:43;3.50;;;2.90;;
56102;SDS011;41970;48.774;9.280;2023-05-07T10:28:09;3.00;;;2.50;;
56102;SDS011;41970;48.774;9.280;2023-05-07T10:33:32;2.50;;;2.40;;
56102;SDS011;41970;48.774;9.280;2023-05-07T10:36:01;5.40;;;2.80;;
56102;SDS011;41970;48.774;9.280;2023-05-07T10:38:29;3.90;;;2.90;;
56102;SDS011;41970;48.774;9.280;2023-05-07T10:40:55;3.00;;;2.70;;
56102;SDS011;41970;48.774;9.280;2023-05-07T10:43:21;2.30;;;2.10;;
56102;SDS011;41970;48.774;9.280;2023-05-07T10:49:12;3.30;;;3.00;;
56102;SDS011;41970;48.774;9.280;2023-05-07T10:51:34;2.73;;;2.53;;
56102;SDS011;41970;48.774;9.280;2023-05-07T10:56:35;3.93;;;2.80;;
56102;SDS011;41970;48.774;9.280;2023-05-07T11:02:01;3.00;;;2.60;;
56102;SDS011;41970;48.774;9.280;2023-05-07T11:04:29;2.50;;;2.30;;
56102;SDS011;41970;48.774;9.280;2023-05-07T11:12:16;3.50;;;2.60;;
56102;SDS011;41970;48.774;9.280;2023-05-07T11:14:43;3.33;;;3.03;;
56102;SDS011;41970;48.774;9.280;2023-05-07T11:17:11;2.90;;;2.70;;
56102;SDS011;41970;48.774;9.280;2023-05-07T11:19:50;2.60;;;2.40;;
56102;SDS011;41970;48.774;9.280;2023-05-07T11:25:04;2.97;;;2.67;;
56102;SDS011;41970;48.774;9.280;2023-05-07T11:27:31;4.97;;;2.90;;
56102;SDS011;41970;48.774;9.280;2023-05-07T11:29:58;2.70;;;2.50;;
56102;SDS011;41970;48.774;9.280;2023-05-07T11:32:26;3.00;;;2.80;;
56102;SDS011;41970;48.774;9.280;2023-05-07T11:34:54;2.67;;;2.47;;
56102;SDS011;41970;48.774;9.280;2023-05-07T11:37:21;4.70;;;2.57;;
56102;SDS011;41970;48.774;9.280;2023-05-07T11:39:48;2.50;;;2.30;;
56102;SDS011;41970;48.774;9.280;2023-05-07T11:42:29;2.70;;;2.40;;
56102;SDS011;41970;48.774;9.280;2023-05-07T11:44:56;2.70;;;2.30;;
56102;SDS011;41970;48.774;9.280;2023-05-07T11:47:22;3.30;;;2.23;;
56102;SDS011;41970;48.774;9.280;2023-05-07T11:49:49;2.20;;;2.10;;
56102;SDS011;41970;48.774;9.280;2023-05-07T11:52:16;2.67;;;2.13;;
56102;SDS011;41970;48.774;9.280;2023-05-07T11:57:15;4.63;;;2.43;;
56102;SDS011;41970;48.774;9.280;2023-05-07T11:59:41;2.50;;;2.10;;
56102;SDS011;41970;48.774;9.280;2023-05-07T12:02:09;2.63;;;2.43;;
56102;SDS011;41970;48.774;9.280;2023-05-07T12:04:35;3.87;;;2.47;;
56102;SDS011;41970;48.774;9.280;2023-05-07T12:07:03;2.37;;;2.17;;
56102;SDS011;41970;48.774;9.280;2023-05-07T12:09:28;2.63;;;2.43;;
56102;SDS011;41970;48.774;9.280;2023-05-07T12:11:54;2.30;;;2.00;;
56102;SDS011;41970;48.774;9.280;2023-05-07T12:14:21;4.50;;;2.30;;
56102;SDS011;41970;48.774;9.280;2023-05-07T12:16:47;2.57;;;2.40;;
56102;SDS011;41970;48.774;9.280;2023-05-07T12:19:13;2.30;;;2.20;;
56102;SDS011;41970;48.774;9.280;2023-05-07T12:21:39;2.10;;;1.90;;
56102;SDS011;41970;48.774;9.280;2023-05-07T12:24:05;2.47;;;2.23;;
56102;SDS011;41970;48.774;9.280;2023-05-07T12:26:33;2.70;;;2.43;;
56102;SDS011;41970;48.774;9.280;2023-05-07T12:29:05;2.97;;;2.77;;
56102;SDS011;41970;48.774;9.280;2023-05-07T12:31:31;2.30;;;2.10;;
56102;SDS011;41970;48.774;9.280;2023-05-07T12:33:57;4.37;;;2.77;;
56102;SDS011;41970;48.774;9.280;2023-05-07T12:36:23;4.00;;;2.60;;
56102;SDS011;41970;48.774;9.280;2023-05-07T12:38:49;5.13;;;3.70;;
56102;SDS011;41970;48.774;9.280;2023-05-07T12:41:15;5.30;;;3.07;;
56102;SDS011;41970;48.774;9.280;2023-05-07T12:43:44;2.50;;;2.30;;
56102;SDS011;41970;48.774;9.280;2023-05-07T12:46:11;2.60;;;2.03;;
56102;SDS011;41970;48.774;9.280;2023-05-07T12:48:45;2.70;;;2.30;;
56102;SDS011;41970;48.774;9.280;2023-05-07T12:51:11;3.33;;;2.17;;
56102;SDS011;41970;48.774;9.280;2023-05-07T12:53:41;2.50;;;2.30;;
56102;SDS011;41970;48.774;9.280;2023-05-07T12:56:08;3.00;;;2.80;;
56102;SDS011;41970;48.774;9.280;2023-05-07T12:58:34;4.40;;;2.80;;
56102;SDS011;41970;48.774;9.280;2023-05-07T13:01:03;3.40;;;2.80;;
56102;SDS011;41970;48.774;9.280;2023-05-07T13:03:31;2.80;;;2.60;;
56102;SDS011;41970;48.774;9.280;2023-05-07T13:05:59;4.60;;;3.23;;
56102;SDS011;41970;48.774;9.280;2023-05-07T13:10:58;10.53;;;4.73;;
56102;SDS011;41970;48.774;9.280;2023-05-07T13:13:32;11.73;;;4.87;;
56102;SDS011;41970;48.774;9.280;2023-05-07T13:15:59;7.47;;;3.57;;
56102;SDS011;41970;48.774;9.280;2023-05-07T13:18:26;5.57;;;3.57;;
56102;SDS011;41970;48.774;9.280;2023-05-07T13:20:55;8.27;;;3.00;;
56102;SDS011;41970;48.774;9.280;2023-05-07T13:23:21;2.77;;;2.50;;
56102;SDS011;41970;48.774;9.280;2023-05-07T13:25:47;5.57;;;3.37;;
56102;SDS011;41970;48.774;9.280;2023-05-07T13:28:13;6.17;;;3.47;;
56102;SDS011;41970;48.774;9.280;2023-05-07T13:30:39;5.10;;;2.50;;
56102;SDS011;41970;48.774;9.280;2023-05-07T13:33:08;8.20;;;3.33;;
56102;SDS011;41970;48.774;9.280;2023-05-07T13:35:34;2.30;;;2.07;;
56102;SDS011;41970;48.774;9.280;2023-05-07T13:38:00;4.60;;;1.57;;
56102;SDS011;41970;48.774;9.280;2023-05-07T13:40:26;4.03;;;1.87;;
56102;SDS011;41970;48.774;9.280;2023-05-07T13:42:52;1.93;;;1.60;;
56102;SDS011;41970;48.774;9.280;2023-05-07T13:45:18;7.87;;;1.50;;
56102;SDS011;41970;48.774;9.280;2023-05-07T13:47:45;2.33;;;1.70;;
56102;SDS011;41970;48.774;9.280;2023-05-07T13:50:11;2.67;;;1.80;;
56102;SDS011;41970;48.774;9.280;2023-05-07T13:52:41;2.00;;;1.43;;
56102;SDS011;41970;48.774;9.280;2023-05-07T13:55:08;2.47;;;1.40;;
56102;SDS011;41970;48.774;9.280;2023-05-07T13:57:37;1.53;;;1.43;;
56102;SDS011;41970;48.774;9.280;2023-05-07T14:00:03;1.53;;;1.43;;
56102;SDS011;41970;48.774;9.280;2023-05-07T14:02:30;2.50;;;1.30;;
56102;SDS011;41970;48.774;9.280;2023-05-07T14:04:56;3.10;;;2.27;;
56102;SDS011;41970;48.774;9.280;2023-05-07T14:07:22;2.03;;;1.60;;
56102;SDS011;41970;48.774;9.280;2023-05-07T14:09:48;1.87;;;1.60;;
56102;SDS011;41970;48.774;9.280;2023-05-07T14:12:13;2.53;;;1.40;;
56102;SDS011;41970;48.774;9.280;2023-05-07T14:14:39;5.43;;;2.30;;
56102;SDS011;41970;48.774;9.280;2023-05-07T14:17:05;2.13;;;1.93;;
56102;SDS011;41970;48.774;9.280;2023-05-07T14:19:31;2.63;;;1.97;;
56102;SDS011;41970;48.774;9.280;2023-05-07T14:21:56;2.77;;;2.43;;
56102;SDS011;41970;48.774;9.280;2023-05-07T14:24:23;2.80;;;2.40;;
56102;SDS011;41970;48.774;9.280;2023-05-07T14:26:49;4.80;;;2.87;;
56102;SDS011;41970;48.774;9.280;2023-05-07T14:29:15;3.77;;;2.60;;
56102;SDS011;41970;48.774;9.280;2023-05-07T14:31:46;2.80;;;2.30;;
56102;SDS011;41970;48.774;9.280;2023-05-07T14:34:12;3.03;;;2.13;;
56102;SDS011;41970;48.774;9.280;2023-05-07T14:36:38;2.33;;;2.13;;
56102;SDS011;41970;48.774;9.280;2023-05-07T14:39:03;3.83;;;2.03;;
56102;SDS011;41970;48.774;9.280;2023-05-07T14:41:29;3.57;;;2.30;;
56102;SDS011;41970;48.774;9.280;2023-05-07T14:43:56;2.90;;;2.33;;
56102;SDS011;41970;48.774;9.280;2023-05-07T14:46:23;6.10;;;2.60;;
56102;SDS011;41970;48.774;9.280;2023-05-07T14:48:49;2.60;;;2.23;;
56102;SDS011;41970;48.774;9.280;2023-05-07T14:51:15;4.10;;;2.40;;
56102;SDS011;41970;48.774;9.280;2023-05-07T14:53:41;3.00;;;2.50;;
56102;SDS011;41970;48.774;9.280;2023-05-07T14:56:07;3.50;;;2.40;;
56102;SDS011;41970;48.774;9.280;2023-05-07T14:58:33;6.57;;;3.10;;
56102;SDS011;41970;48.774;9.280;2023-05-07T15:01:03;2.33;;;2.13;;
56102;SDS011;41970;48.774;9.280;2023-05-07T15:03:28;2.13;;;1.93;;
56102;SDS011;41970;48.774;9.280;2023-05-07T15:05:55;3.80;;;2.20;;
56102;SDS011;41970;48.774;9.280;2023-05-07T15:08:21;3.07;;;2.50;;
56102;SDS011;41970;48.774;9.280;2023-05-07T15:10:47;2.20;;;2.00;;